Time;durP1;ratioP1;P1;durP2;ratioP2;P2;SDS_P1;SDS_P2;PMS_P1;PMS_P2;Temp;Humidity;BMP_temperature;BMP_pressure;BME280_temperature;BME280_humidity;BME280_pressure;Samples;Min_cycle;Max_cycle;Signal;HPM_P1;HPM_P2
2022/04/23 00:00:27;;;;;;;1.90;1.70;;;;;;;;;;5065629;28;20606;-80
2022/04/23 00:02:58;;;;;;;1.83;1.50;;;;;;;;;;5078683;28;20233;-80
2022/04/23 00:05:26;;;;;;;2.53;1.33;;;;;;;;;;5078927;28;20236;-79
2022/04/23 00:07:54;;;;;;;2.20;1.70;;;;;;;;;;5075402;28;20231;-80
2022/04/23 00:10:23;;;;;;;2.83;1.53;;;;;;;;;;5076092;28;20233;-79
2022/04/23 00:12:54;;;;;;;2.30;1.20;;;;;;;;;;5078912;28;20205;-81
2022/04/23 00:15:25;;;;;;;2.70;1.40;;;;;;;;;;5077864;28;20715;-80
2022/04/23 00:17:55;;;;;;;1.40;1.30;;;;;;;;;;5060451;28;20289;-80
2022/04/23 00:20:24;;;;;;;1.90;1.23;;;;;;;;;;5058923;28;20234;-79
2022/04/23 00:22:52;;;;;;;1.27;1.17;;;;;;;;;;5058814;28;20206;-80
2022/04/23 00:25:20;;;;;;;4.60;1.37;;;;;;;;;;5058698;28;20231;-80
2022/04/23 00:27:48;;;;;;;2.77;1.30;;;;;;;;;;5062174;28;20289;-79
2022/04/23 00:30:16;;;;;;;4.80;1.47;;;;;;;;;;5078902;28;20262;-79
2022/04/23 00:32:44;;;;;;;7.23;1.50;;;;;;;;;;5078109;28;20335;-79
2022/04/23 00:35:15;;;;;;;1.60;1.27;;;;;;;;;;5078519;28;20366;-79
2022/04/23 00:37:44;;;;;;;2.43;1.23;;;;;;;;;;5078268;28;20611;-78
2022/04/23 00:40:16;;;;;;;2.80;1.10;;;;;;;;;;5078439;28;20806;-80
2022/04/23 00:42:48;;;;;;;1.63;1.33;;;;;;;;;;5078688;28;20245;-79
2022/04/23 00:45:16;;;;;;;2.50;1.17;;;;;;;;;;5075238;28;20289;-79
2022/04/23 00:47:44;;;;;;;2.43;1.23;;;;;;;;;;5057881;28;20206;-78
2022/04/23 00:50:13;;;;;;;1.33;1.23;;;;;;;;;;5057943;28;20265;-79
2022/04/23 00:52:42;;;;;;;1.47;1.33;;;;;;;;;;5058069;28;20206;-80
2022/04/23 00:55:10;;;;;;;2.63;1.10;;;;;;;;;;5057900;28;20238;-79
2022/04/23 00:57:38;;;;;;;2.90;1.27;;;;;;;;;;5062160;28;20285;-79
2022/04/23 01:00:08;;;;;;;1.70;1.20;;;;;;;;;;5077864;28;20202;-79
2022/04/23 01:02:37;;;;;;;1.73;1.10;;;;;;;;;;5076847;28;20320;-80
2022/04/23 01:05:08;;;;;;;3.57;1.33;;;;;;;;;;5077061;28;20242;-79
2022/04/23 01:07:38;;;;;;;1.40;1.30;;;;;;;;;;5075693;28;20542;-79
2022/04/23 01:10:09;;;;;;;3.07;1.40;;;;;;;;;;5070703;28;20261;-79
2022/04/23 01:12:37;;;;;;;1.83;1.20;;;;;;;;;;5077267;28;20238;-79
2022/04/23 01:15:06;;;;;;;1.40;1.30;;;;;;;;;;5077503;28;20586;-79
2022/04/23 01:17:35;;;;;;;1.87;1.07;;;;;;;;;;5061645;28;20203;-80
2022/04/23 01:20:06;;;;;;;3.13;1.70;;;;;;;;;;5057441;28;20245;-80
2022/04/23 01:22:35;;;;;;;2.03;1.30;;;;;;;;;;5057504;28;20229;-79
2022/04/23 01:25:04;;;;;;;4.30;1.43;;;;;;;;;;5057310;28;20237;-79
2022/04/23 01:27:34;;;;;;;1.50;1.40;;;;;;;;;;5060695;28;20642;-78
2022/04/23 01:30:02;;;;;;;3.07;1.20;;;;;;;;;;5077573;28;20226;-79
2022/04/23 01:32:30;;;;;;;0.90;0.90;;;;;;;;;;5078177;28;20642;-79
2022/04/23 01:34:58;;;;;;;2.20;1.17;;;;;;;;;;5078514;28;20225;-78
2022/04/23 01:37:28;;;;;;;1.57;1.10;;;;;;;;;;5077717;28;20639;-79
2022/04/23 01:39:56;;;;;;;1.20;1.10;;;;;;;;;;5077354;28;20551;-78
2022/04/23 01:42:24;;;;;;;2.13;1.00;;;;;;;;;;5077585;28;20242;-78
2022/04/23 01:44:52;;;;;;;1.23;1.13;;;;;;;;;;5077320;28;20238;-78
2022/04/23 01:47:21;;;;;;;1.63;1.00;;;;;;;;;;5057482;28;20273;-78
2022/04/23 01:49:49;;;;;;;2.13;1.00;;;;;;;;;;5057408;28;20262;-79
2022/04/23 01:52:17;;;;;;;3.87;1.03;;;;;;;;;;5057482;28;20241;-78
2022/04/23 01:54:46;;;;;;;3.73;1.00;;;;;;;;;;5057101;28;20694;-78
2022/04/23 01:57:14;;;;;;;1.70;1.10;;;;;;;;;;5058512;28;20848;-77
2022/04/23 01:59:42;;;;;;;3.53;1.07;;;;;;;;;;5057512;28;20219;-78
2022/04/23 02:02:10;;;;;;;5.23;1.27;;;;;;;;;;5056663;28;20701;-78
2022/04/23 02:04:38;;;;;;;1.30;1.20;;;;;;;;;;5058549;28;20289;-77
2022/04/23 02:07:07;;;;;;;1.90;1.00;;;;;;;;;;5077444;28;20225;-77
2022/04/23 02:09:35;;;;;;;1.00;0.77;;;;;;;;;;5076455;28;20209;-76
2022/04/23 02:12:05;;;;;;;2.23;1.00;;;;;;;;;;5077400;28;20238;-76
2022/04/23 02:14:33;;;;;;;1.37;1.00;;;;;;;;;;5077098;28;20688;-76
2022/04/23 02:17:03;;;;;;;0.70;0.70;;;;;;;;;;5073717;28;20304;-78
2022/04/23 02:19:32;;;;;;;1.23;0.80;;;;;;;;;;5063756;28;20210;-78
2022/04/23 02:21:59;;;;;;;2.23;1.03;;;;;;;;;;5057247;28;20247;-78
2022/04/23 02:24:27;;;;;;;0.97;0.93;;;;;;;;;;5056788;28;20551;-77
2022/04/23 02:26:55;;;;;;;1.73;1.00;;;;;;;;;;5056984;28;20227;-76
2022/04/23 02:29:25;;;;;;;1.20;1.10;;;;;;;;;;5065061;28;20203;-78
2022/04/23 02:31:53;;;;;;;3.00;1.43;;;;;;;;;;5065828;28;20254;-79
2022/04/23 02:34:21;;;;;;;1.43;1.20;;;;;;;;;;5058056;28;20256;-78
2022/04/23 02:36:49;;;;;;;2.30;1.17;;;;;;;;;;5062256;28;20254;-77
2022/04/23 02:39:17;;;;;;;1.60;1.50;;;;;;;;;;5065139;28;20257;-79
2022/04/23 02:41:46;;;;;;;1.50;1.40;;;;;;;;;;5070047;28;20250;-80
2022/04/23 02:44:15;;;;;;;1.10;1.10;;;;;;;;;;5076508;28;20206;-79
2022/04/23 02:46:45;;;;;;;2.83;1.00;;;;;;;;;;5068422;28;20222;-79
2022/04/23 02:49:13;;;;;;;2.07;1.00;;;;;;;;;;5077253;28;20208;-79
2022/04/23 02:51:42;;;;;;;2.07;1.20;;;;;;;;;;5074226;28;20305;-79
2022/04/23 02:54:12;;;;;;;3.13;1.23;;;;;;;;;;5068208;28;20213;-79
2022/04/23 02:56:40;;;;;;;2.03;1.30;;;;;;;;;;5060542;28;20257;-78
2022/04/23 02:59:09;;;;;;;4.83;1.40;;;;;;;;;;5060853;28;20261;-78
2022/04/23 03:01:37;;;;;;;1.60;1.07;;;;;;;;;;5059920;28;20658;-79
2022/04/23 03:04:09;;;;;;;2.63;1.23;;;;;;;;;;5060585;28;20245;-79
2022/04/23 03:06:38;;;;;;;2.37;1.10;;;;;;;;;;5060368;28;20226;-78
2022/04/23 03:09:06;;;;;;;2.70;1.10;;;;;;;;;;5072492;28;20202;-78
2022/04/23 03:11:34;;;;;;;2.93;1.17;;;;;;;;;;5060053;28;20313;-79
2022/04/23 03:14:03;;;;;;;3.03;1.10;;;;;;;;;;5060518;28;20207;-79
2022/04/23 03:16:31;;;;;;;1.63;1.20;;;;;;;;;;5059967;28;20214;-80
2022/04/23 03:19:00;;;;;;;2.33;1.27;;;;;;;;;;5060376;28;20215;-79
2022/04/23 03:21:29;;;;;;;4.30;1.20;;;;;;;;;;5077235;28;20266;-80
2022/04/23 03:23:57;;;;;;;2.17;1.20;;;;;;;;;;5080156;28;20207;-79
2022/04/23 03:26:25;;;;;;;2.23;1.27;;;;;;;;;;5079943;28;20262;-80
2022/04/23 03:28:53;;;;;;;2.60;1.70;;;;;;;;;;5080256;28;20237;-79
2022/04/23 03:31:21;;;;;;;4.00;1.87;;;;;;;;;;5079566;28;20285;-79
2022/04/23 03:33:49;;;;;;;1.30;1.20;;;;;;;;;;5080114;28;20236;-80
2022/04/23 03:36:17;;;;;;;0.90;0.90;;;;;;;;;;5079530;28;20261;-78
2022/04/23 03:38:47;;;;;;;2.57;1.67;;;;;;;;;;5079842;28;20256;-78
2022/04/23 03:41:17;;;;;;;1.70;1.33;;;;;;;;;;5079797;28;20662;-78
2022/04/23 03:43:45;;;;;;;1.03;0.93;;;;;;;;;;5079944;28;20238;-80
2022/04/23 03:46:13;;;;;;;4.33;1.63;;;;;;;;;;5071613;28;20306;-78
2022/04/23 03:48:41;;;;;;;1.53;1.00;;;;;;;;;;5059557;28;20650;-79
2022/04/23 03:51:09;;;;;;;3.67;1.60;;;;;;;;;;5059319;28;20262;-78
2022/04/23 03:53:37;;;;;;;2.20;1.27;;;;;;;;;;5059342;28;20759;-80
2022/04/23 03:56:08;;;;;;;4.13;1.17;;;;;;;;;;5059401;28;20277;-78
2022/04/23 03:58:36;;;;;;;4.03;1.00;;;;;;;;;;5059607;28;20229;-80
2022/04/23 04:01:04;;;;;;;1.60;1.20;;;;;;;;;;5059050;28;20222;-80
2022/04/23 04:03:33;;;;;;;1.50;0.90;;;;;;;;;;5059971;28;20231;-80
2022/04/23 04:06:01;;;;;;;2.07;1.30;;;;;;;;;;5058556;28;20277;-79
2022/04/23 04:08:29;;;;;;;4.13;1.20;;;;;;;;;;5059450;28;20206;-79
2022/04/23 04:10:57;;;;;;;2.10;1.10;;;;;;;;;;5058129;28;20273;-80
2022/04/23 04:13:27;;;;;;;1.40;1.30;;;;;;;;;;5058509;28;20210;-79
2022/04/23 04:15:55;;;;;;;1.67;1.27;;;;;;;;;;5058004;28;20231;-80
2022/04/23 04:18:23;;;;;;;5.23;1.73;;;;;;;;;;5058082;28;20207;-79
2022/04/23 04:20:53;;;;;;;2.57;1.60;;;;;;;;;;5057819;28;20257;-80
2022/04/23 04:23:23;;;;;;;2.20;1.37;;;;;;;;;;5064086;28;20233;-80
2022/04/23 04:25:51;;;;;;;4.13;1.50;;;;;;;;;;5068693;28;20253;-71
2022/04/23 04:28:19;;;;;;;4.23;1.47;;;;;;;;;;5070397;28;20202;-67
2022/04/23 04:33:33;;;;;;;1.47;1.00;;;;;;;;;;5067421;28;20210;-67
2022/04/23 04:36:01;;;;;;;3.03;1.33;;;;;;;;;;5069729;28;20587;-68
2022/04/23 04:38:30;;;;;;;2.87;1.33;;;;;;;;;;5069869;28;20244;-68
2022/04/23 04:40:58;;;;;;;3.40;1.20;;;;;;;;;;5069905;28;20285;-68
2022/04/23 04:43:26;;;;;;;2.60;1.50;;;;;;;;;;5068001;28;20207;-68
2022/04/23 04:45:56;;;;;;;1.73;0.93;;;;;;;;;;5070698;28;20236;-67
2022/04/23 04:48:24;;;;;;;5.13;1.10;;;;;;;;;;5071668;28;20207;-67
2022/04/23 04:50:52;;;;;;;2.23;1.00;;;;;;;;;;5071848;28;20202;-67
2022/04/23 04:53:20;;;;;;;2.07;1.10;;;;;;;;;;5070903;28;20230;-67
2022/04/23 04:55:48;;;;;;;2.23;1.33;;;;;;;;;;5069741;28;20218;-67
2022/04/23 04:58:16;;;;;;;3.27;1.20;;;;;;;;;;5069855;28;20265;-67
2022/04/23 05:00:45;;;;;;;3.13;1.20;;;;;;;;;;5068913;28;20202;-68
2022/04/23 05:03:14;;;;;;;3.73;1.20;;;;;;;;;;5068295;28;20666;-68
2022/04/23 05:05:44;;;;;;;1.40;1.23;;;;;;;;;;5069554;28;20226;-67
2022/04/23 05:08:12;;;;;;;4.53;1.30;;;;;;;;;;5069445;28;20257;-67
2022/04/23 05:10:40;;;;;;;4.33;1.30;;;;;;;;;;5069360;28;20269;-68
2022/04/23 05:13:08;;;;;;;3.00;1.00;;;;;;;;;;5069447;28;20267;-67
2022/04/23 05:15:37;;;;;;;3.43;1.20;;;;;;;;;;5069667;28;20265;-67
2022/04/23 05:18:05;;;;;;;3.00;1.27;;;;;;;;;;5071979;28;20194;-65
2022/04/23 05:20:35;;;;;;;2.73;1.17;;;;;;;;;;5068491;28;20280;-65
2022/04/23 05:23:03;;;;;;;2.67;1.53;;;;;;;;;;5070836;28;20285;-67
2022/04/23 05:25:31;;;;;;;2.20;1.77;;;;;;;;;;5068151;28;20214;-66
2022/04/23 05:27:59;;;;;;;2.67;1.10;;;;;;;;;;5069126;28;20623;-65
2022/04/23 05:30:27;;;;;;;1.53;1.43;;;;;;;;;;5071549;28;20956;-64
2022/04/23 05:32:55;;;;;;;1.03;0.90;;;;;;;;;;5077595;28;20230;-66
2022/04/23 05:35:23;;;;;;;1.33;1.13;;;;;;;;;;5077618;28;20226;-66
2022/04/23 05:37:53;;;;;;;2.93;1.30;;;;;;;;;;5077544;28;20681;-67
2022/04/23 05:40:21;;;;;;;3.87;1.70;;;;;;;;;;5077880;28;20206;-66
2022/04/23 05:42:49;;;;;;;3.90;1.60;;;;;;;;;;5078681;28;20242;-64
2022/04/23 05:45:17;;;;;;;1.60;1.50;;;;;;;;;;5074304;28;20290;-66
2022/04/23 05:47:45;;;;;;;2.20;1.30;;;;;;;;;;5057579;28;20678;-66
2022/04/23 05:50:13;;;;;;;4.60;1.40;;;;;;;;;;5057070;28;20604;-67
2022/04/23 05:52:41;;;;;;;1.97;1.37;;;;;;;;;;5057524;28;20262;-66
2022/04/23 05:55:11;;;;;;;1.60;1.27;;;;;;;;;;5057411;28;20279;-66
2022/04/23 05:57:39;;;;;;;1.57;1.10;;;;;;;;;;5057337;28;20261;-66
2022/04/23 06:00:09;;;;;;;3.60;1.40;;;;;;;;;;5071001;28;20226;-65
2022/04/23 06:02:37;;;;;;;3.20;1.60;;;;;;;;;;5075742;28;20230;-66
2022/04/23 06:05:06;;;;;;;2.43;1.20;;;;;;;;;;5077394;28;20202;-66
2022/04/23 06:07:34;;;;;;;1.30;1.20;;;;;;;;;;5075585;28;20202;-66
2022/04/23 06:10:03;;;;;;;1.47;0.97;;;;;;;;;;5074901;28;20217;-66
2022/04/23 06:12:32;;;;;;;9.07;2.30;;;;;;;;;;5072818;28;20304;-78
2022/04/23 06:15:00;;;;;;;3.57;1.57;;;;;;;;;;5071983;28;20226;-78
2022/04/23 06:17:29;;;;;;;3.40;1.50;;;;;;;;;;5071146;28;20205;-76
2022/04/23 06:19:57;;;;;;;3.00;1.40;;;;;;;;;;5072634;28;20248;-75
2022/04/23 06:22:25;;;;;;;5.93;1.50;;;;;;;;;;5072446;28;20253;-77
2022/04/23 06:24:53;;;;;;;2.73;1.43;;;;;;;;;;5072730;28;20230;-77
2022/04/23 06:27:21;;;;;;;2.30;1.70;;;;;;;;;;5072372;28;20250;-75
2022/04/23 06:29:50;;;;;;;1.90;1.43;;;;;;;;;;5072392;28;20233;-76
2022/04/23 06:32:18;;;;;;;4.30;1.50;;;;;;;;;;5070806;28;20305;-77
2022/04/23 06:34:46;;;;;;;2.60;1.40;;;;;;;;;;5071827;28;20240;-78
2022/04/23 06:37:14;;;;;;;1.50;1.40;;;;;;;;;;5074655;28;20265;-77
2022/04/23 06:39:42;;;;;;;2.63;1.57;;;;;;;;;;5070173;28;20677;-79
2022/04/23 06:42:11;;;;;;;5.80;1.47;;;;;;;;;;5072260;28;20658;-80
2022/04/23 06:44:39;;;;;;;1.30;1.20;;;;;;;;;;5070924;28;20290;-79
2022/04/23 06:47:09;;;;;;;4.30;1.70;;;;;;;;;;5068789;28;20238;-78
2022/04/23 06:49:37;;;;;;;5.57;1.37;;;;;;;;;;5070889;28;20277;-79
2022/04/23 06:52:06;;;;;;;3.37;1.40;;;;;;;;;;5070513;28;20202;-79
2022/04/23 06:54:34;;;;;;;4.60;1.37;;;;;;;;;;5069975;28;20198;-80
2022/04/23 06:57:02;;;;;;;2.13;1.63;;;;;;;;;;5070916;28;20237;-79
2022/04/23 06:59:30;;;;;;;3.10;1.60;;;;;;;;;;5069939;28;20198;-81
2022/04/23 07:02:02;;;;;;;1.50;1.40;;;;;;;;;;5071926;28;20253;-78
2022/04/23 07:04:32;;;;;;;2.80;1.77;;;;;;;;;;5066846;28;20213;-78
2022/04/23 07:07:01;;;;;;;1.37;1.20;;;;;;;;;;5073219;28;20264;-78
2022/04/23 07:09:29;;;;;;;5.43;1.67;;;;;;;;;;5069393;28;20229;-78
2022/04/23 07:11:58;;;;;;;6.23;1.43;;;;;;;;;;5072379;28;20214;-78
2022/04/23 07:14:27;;;;;;;3.17;1.13;;;;;;;;;;5070388;28;20250;-78
2022/04/23 07:16:57;;;;;;;2.77;1.20;;;;;;;;;;5071908;28;20257;-78
2022/04/23 07:19:25;;;;;;;5.50;1.20;;;;;;;;;;5070559;28;20226;-78
2022/04/23 07:21:55;;;;;;;1.23;1.13;;;;;;;;;;5070980;28;20206;-78
2022/04/23 07:24:23;;;;;;;2.27;1.70;;;;;;;;;;5071092;28;20194;-78
2022/04/23 07:26:51;;;;;;;3.23;1.50;;;;;;;;;;5072611;28;20241;-77
2022/04/23 07:29:19;;;;;;;1.40;1.30;;;;;;;;;;5070642;28;20229;-79
2022/04/23 07:31:47;;;;;;;1.90;1.63;;;;;;;;;;5070654;28;20252;-79
2022/04/23 07:39:49;;;;;;;3.33;1.50;;;;;;;;;;5070718;28;20226;-77
2022/04/23 07:42:17;;;;;;;3.80;1.50;;;;;;;;;;5070647;28;20700;-81
2022/04/23 07:44:45;;;;;;;3.00;1.40;;;;;;;;;;5070122;28;20235;-79
2022/04/23 07:47:18;;;;;;;2.87;1.40;;;;;;;;;;5069740;28;20226;-79
2022/04/23 07:49:46;;;;;;;4.70;1.30;;;;;;;;;;5070785;28;20229;-80
2022/04/23 07:52:16;;;;;;;4.47;1.47;;;;;;;;;;5068804;28;20253;-80
2022/04/23 07:54:44;;;;;;;5.77;1.60;;;;;;;;;;5069858;28;20250;-79
2022/04/23 07:57:13;;;;;;;1.70;1.60;;;;;;;;;;5072079;28;20230;-81
2022/04/23 07:59:42;;;;;;;4.10;1.77;;;;;;;;;;5071003;28;20202;-79
2022/04/23 08:02:10;;;;;;;3.17;1.43;;;;;;;;;;5068149;28;20288;-80
2022/04/23 08:04:38;;;;;;;5.53;1.57;;;;;;;;;;5069180;28;20206;-78
2022/04/23 08:07:06;;;;;;;2.70;1.43;;;;;;;;;;5069886;28;20737;-80
2022/04/23 08:09:39;;;;;;;4.73;1.60;;;;;;;;;;5067055;28;20226;-79
2022/04/23 08:12:09;;;;;;;1.60;1.37;;;;;;;;;;5068672;28;20244;-78
2022/04/23 08:14:38;;;;;;;5.57;1.37;;;;;;;;;;5072369;28;20248;-78
2022/04/23 08:17:06;;;;;;;3.63;1.30;;;;;;;;;;5067573;28;20227;-81
2022/04/23 08:19:34;;;;;;;3.03;1.43;;;;;;;;;;5072436;28;20206;-80
2022/04/23 08:22:03;;;;;;;3.03;1.30;;;;;;;;;;5069839;28;20650;-79
2022/04/23 08:24:31;;;;;;;3.10;1.40;;;;;;;;;;5073788;28;20197;-80
2022/04/23 08:27:01;;;;;;;3.63;1.57;;;;;;;;;;5070530;28;20215;-79
2022/04/23 08:32:14;;;;;;;2.40;1.20;;;;;;;;;;5070131;28;20252;-79
2022/04/23 08:34:42;;;;;;;4.97;1.73;;;;;;;;;;5070886;28;20223;-79
2022/04/23 08:37:10;;;;;;;3.60;1.60;;;;;;;;;;5068649;28;20578;-79
2022/04/23 08:39:39;;;;;;;4.53;1.47;;;;;;;;;;5069342;28;20226;-79
2022/04/23 08:42:09;;;;;;;1.50;1.40;;;;;;;;;;5066896;28;20746;-80
2022/04/23 08:44:37;;;;;;;3.10;1.30;;;;;;;;;;5068422;28;20195;-81
2022/04/23 08:47:06;;;;;;;2.33;1.40;;;;;;;;;;5071658;28;20268;-80
2022/04/23 08:49:38;;;;;;;3.23;1.50;;;;;;;;;;5071339;28;20605;-80
2022/04/23 08:52:11;;;;;;;3.97;1.70;;;;;;;;;;5071430;28;20206;-80
2022/04/23 08:54:40;;;;;;;3.30;1.50;;;;;;;;;;5068862;28;20275;-80
2022/04/23 08:57:09;;;;;;;5.40;1.70;;;;;;;;;;5068825;28;20218;-80
2022/04/23 08:59:38;;;;;;;5.93;2.00;;;;;;;;;;5069625;28;20202;-80
2022/04/23 09:02:11;;;;;;;5.93;1.70;;;;;;;;;;5068095;28;20283;-80
2022/04/23 09:04:40;;;;;;;4.43;2.00;;;;;;;;;;5071481;28;20198;-81
2022/04/23 09:07:18;;;;;;;2.83;1.50;;;;;;;;;;5069563;28;20310;-81
2022/04/23 09:09:48;;;;;;;2.70;1.80;;;;;;;;;;5070102;28;20233;-77
2022/04/23 09:12:18;;;;;;;2.57;1.60;;;;;;;;;;5070859;28;20570;-76
2022/04/23 09:14:46;;;;;;;3.23;1.50;;;;;;;;;;5069256;28;20654;-78
2022/04/23 09:25:40;;;;;;;6.40;2.17;;;;;;;;;;5070405;28;20219;-79
2022/04/23 09:28:15;;;;;;;4.93;1.43;;;;;;;;;;5069411;28;20202;-74
2022/04/23 09:30:44;;;;;;;3.40;1.90;;;;;;;;;;5068581;28;20199;-80
2022/04/23 09:33:12;;;;;;;5.53;1.63;;;;;;;;;;5068708;28;20202;-78
2022/04/23 09:35:53;;;;;;;8.33;1.80;;;;;;;;;;5076096;28;20230;-80
2022/04/23 09:38:20;;;;;;;5.57;1.87;;;;;;;;;;5076620;28;20206;-80
2022/04/23 09:40:52;;;;;;;6.17;2.30;;;;;;;;;;5070798;28;20284;-81
2022/04/23 09:43:29;;;;;;;5.17;1.63;;;;;;;;;;5070298;28;20203;-81
2022/04/23 09:46:04;;;;;;;5.50;1.60;;;;;;;;;;5067539;28;20634;-80
2022/04/23 09:48:39;;;;;;;3.93;1.60;;;;;;;;;;5059855;28;20230;-80
2022/04/23 09:51:07;;;;;;;3.10;2.10;;;;;;;;;;5056817;28;20211;-80
2022/04/23 09:53:36;;;;;;;3.93;1.60;;;;;;;;;;5056981;28;20836;-79
2022/04/23 09:56:07;;;;;;;8.30;1.90;;;;;;;;;;5057135;28;20272;-80
2022/04/23 09:58:36;;;;;;;2.77;1.60;;;;;;;;;;5057545;28;20211;-80
2022/04/23 10:01:04;;;;;;;3.67;1.57;;;;;;;;;;5056842;28;20245;-80
2022/04/23 10:03:33;;;;;;;6.37;2.10;;;;;;;;;;5056826;28;20241;-80
2022/04/23 10:06:02;;;;;;;2.73;1.60;;;;;;;;;;5057338;28;20222;-79
2022/04/23 10:08:31;;;;;;;5.67;1.87;;;;;;;;;;5067105;28;20256;-78
2022/04/23 10:11:01;;;;;;;3.90;1.70;;;;;;;;;;5065291;28;20697;-78
2022/04/23 10:13:30;;;;;;;8.43;1.87;;;;;;;;;;5057447;28;20207;-78
2022/04/23 10:16:03;;;;;;;3.90;2.10;;;;;;;;;;5056706;28;20655;-78
2022/04/23 10:18:32;;;;;;;3.47;1.40;;;;;;;;;;5057129;28;20619;-80
2022/04/23 10:21:07;;;;;;;5.17;1.80;;;;;;;;;;5056991;28;20633;-78
2022/04/23 10:23:50;;;;;;;4.43;1.70;;;;;;;;;;5057112;28;20684;-77
2022/04/23 10:26:24;;;;;;;4.13;1.63;;;;;;;;;;5056690;28;20352;-79
2022/04/23 10:28:52;;;;;;;5.43;1.60;;;;;;;;;;5057098;28;20207;-80
2022/04/23 10:31:21;;;;;;;4.70;2.10;;;;;;;;;;5056308;28;20742;-80
2022/04/23 10:33:51;;;;;;;1.60;1.43;;;;;;;;;;5057136;28;20211;-80
2022/04/23 10:36:20;;;;;;;3.03;1.77;;;;;;;;;;5063337;28;20218;-80
2022/04/23 10:38:52;;;;;;;3.27;1.70;;;;;;;;;;5077131;28;20240;-80
2022/04/23 10:41:21;;;;;;;3.13;1.63;;;;;;;;;;5077291;28;20280;-81
2022/04/23 10:43:59;;;;;;;2.17;1.57;;;;;;;;;;5073184;28;20234;-80
2022/04/23 10:46:50;;;;;;;4.00;1.60;;;;;;;;;;5064908;28;20254;-78
2022/04/23 10:49:19;;;;;;;5.80;2.00;;;;;;;;;;5065983;28;20209;-78
2022/04/23 10:51:48;;;;;;;1.90;1.60;;;;;;;;;;5077143;28;20206;-78
2022/04/23 10:54:19;;;;;;;2.47;1.47;;;;;;;;;;5077066;28;20237;-79
2022/04/23 10:56:54;;;;;;;4.23;2.00;;;;;;;;;;5077037;28;20253;-80
2022/04/23 10:59:38;;;;;;;3.53;1.50;;;;;;;;;;5074137;28;20653;-75
2022/04/23 11:02:13;;;;;;;4.03;1.70;;;;;;;;;;5069442;28;20231;-76
2022/04/23 11:12:14;;;;;;;7.33;1.90;;;;;;;;;;5071875;28;20638;-80
2022/04/23 11:13:23;;;;;;;4.27;1.77;;;;;;;;;;5069953;28;20202;-79
2022/04/23 11:16:07;;;;;;;5.07;2.07;;;;;;;;;;5066948;28;20230;-75
2022/04/23 11:18:37;;;;;;;5.80;1.50;;;;;;;;;;5071865;28;20285;-78
2022/04/23 11:21:07;;;;;;;4.63;1.30;;;;;;;;;;5072324;28;20199;-76
2022/04/23 11:23:37;;;;;;;2.60;1.30;;;;;;;;;;5073462;28;20233;-73
2022/04/23 11:26:06;;;;;;;3.07;1.70;;;;;;;;;;5072449;28;20215;-76
2022/04/23 11:28:34;;;;;;;3.80;1.40;;;;;;;;;;5069469;28;20530;-75
2022/04/23 11:31:15;;;;;;;2.70;1.50;;;;;;;;;;5071345;28;20595;-75
2022/04/23 11:33:51;;;;;;;1.67;1.20;;;;;;;;;;5070059;28;20209;-75
2022/04/23 11:36:21;;;;;;;1.80;1.40;;;;;;;;;;5073305;28;20244;-74
2022/04/23 11:38:49;;;;;;;1.63;1.00;;;;;;;;;;5067921;28;20194;-77
2022/04/23 11:41:30;;;;;;;3.13;1.03;;;;;;;;;;5068250;28;20632;-77
2022/04/23 11:43:59;;;;;;;2.30;1.30;;;;;;;;;;5070207;28;20198;-77
2022/04/23 11:46:26;;;;;;;2.30;0.80;;;;;;;;;;5068192;28;20256;-76
2022/04/23 11:48:57;;;;;;;0.70;0.70;;;;;;;;;;5072229;28;20638;-75
2022/04/23 11:51:25;;;;;;;1.43;0.83;;;;;;;;;;5071341;28;20230;-76
2022/04/23 11:53:56;;;;;;;3.13;0.90;;;;;;;;;;5072285;28;20230;-77
2022/04/23 11:56:24;;;;;;;1.47;0.80;;;;;;;;;;5070261;28;20230;-78
2022/04/23 11:58:53;;;;;;;0.73;0.60;;;;;;;;;;5068349;28;20238;-75
2022/04/23 12:01:25;;;;;;;3.80;0.90;;;;;;;;;;5069595;28;20233;-72
2022/04/23 12:03:53;;;;;;;0.87;0.77;;;;;;;;;;5070734;28;20236;-75
2022/04/23 12:06:24;;;;;;;1.90;0.83;;;;;;;;;;5067508;28;20230;-75
2022/04/23 12:08:52;;;;;;;3.67;1.17;;;;;;;;;;5069378;28;20210;-76
2022/04/23 12:11:21;;;;;;;1.53;0.93;;;;;;;;;;5071043;28;20568;-75
2022/04/23 12:13:49;;;;;;;2.60;0.90;;;;;;;;;;5070116;28;20206;-75
2022/04/23 12:16:36;;;;;;;1.17;0.70;;;;;;;;;;5067648;28;20321;-75
2022/04/23 12:19:05;;;;;;;0.90;0.90;;;;;;;;;;5070038;28;20206;-75
2022/04/23 12:21:36;;;;;;;1.47;0.97;;;;;;;;;;5070651;28;20198;-75
2022/04/23 12:24:07;;;;;;;1.00;0.90;;;;;;;;;;5073291;28;20206;-75
2022/04/23 12:26:36;;;;;;;2.33;0.90;;;;;;;;;;5066238;28;20214;-75
2022/04/23 12:40:46;;;;;;;1.13;0.80;;;;;;;;;;5067953;28;20242;-75
2022/04/23 12:43:25;;;;;;;1.80;1.00;;;;;;;;;;5068990;28;20207;-76
2022/04/23 12:46:04;;;;;;;1.03;0.60;;;;;;;;;;5068069;28;20248;-77
2022/04/23 12:48:32;;;;;;;1.33;0.90;;;;;;;;;;5070958;28;20281;-75
2022/04/23 12:51:06;;;;;;;1.67;0.80;;;;;;;;;;5070578;28;20207;-75
2022/04/23 12:53:36;;;;;;;1.77;0.93;;;;;;;;;;5070688;28;20644;-75
2022/04/23 12:56:05;;;;;;;0.83;0.73;;;;;;;;;;5069403;28;20281;-75
2022/04/23 12:58:33;;;;;;;1.17;1.07;;;;;;;;;;5066668;28;20237;-74
2022/04/23 13:01:01;;;;;;;2.57;1.10;;;;;;;;;;5069312;28;20199;-75
2022/04/23 13:03:35;;;;;;;1.50;0.97;;;;;;;;;;5068966;28;20226;-74
2022/04/23 13:06:04;;;;;;;1.20;1.00;;;;;;;;;;5068162;28;20557;-75
2022/04/23 13:08:57;;;;;;;0.70;0.70;;;;;;;;;;5064036;28;20232;-75
2022/04/23 13:11:26;;;;;;;1.17;0.70;;;;;;;;;;5049859;28;20210;-74
2022/04/23 13:13:55;;;;;;;1.67;0.90;;;;;;;;;;5069536;28;20199;-75
2022/04/23 13:16:24;;;;;;;0.70;0.70;;;;;;;;;;5066897;28;20257;-75
2022/04/23 13:18:55;;;;;;;1.77;1.30;;;;;;;;;;5069587;28;20203;-74
2022/04/23 13:21:24;;;;;;;3.10;1.43;;;;;;;;;;5067360;28;20206;-74
2022/04/23 13:23:52;;;;;;;1.60;1.10;;;;;;;;;;5066599;28;20229;-74
2022/04/23 13:26:22;;;;;;;1.67;1.10;;;;;;;;;;5077607;28;20222;-74
2022/04/23 13:28:50;;;;;;;1.30;1.07;;;;;;;;;;5077134;28;20741;-73
2022/04/23 13:31:18;;;;;;;3.37;1.30;;;;;;;;;;5077074;28;20209;-73
2022/04/23 13:33:47;;;;;;;1.50;1.23;;;;;;;;;;5075856;28;20558;-74
2022/04/23 13:36:16;;;;;;;2.43;1.07;;;;;;;;;;5077727;28;20290;-73
2022/04/23 13:38:44;;;;;;;2.07;1.30;;;;;;;;;;5077524;28;20578;-75
2022/04/23 13:41:13;;;;;;;2.10;1.03;;;;;;;;;;5077820;28;20244;-75
2022/04/23 13:43:43;;;;;;;3.50;1.10;;;;;;;;;;5077523;28;20545;-75
2022/04/23 13:46:11;;;;;;;1.43;1.17;;;;;;;;;;5067729;28;20710;-76
2022/04/23 13:48:40;;;;;;;1.17;0.93;;;;;;;;;;5057502;28;20203;-76
2022/04/23 13:51:08;;;;;;;2.53;1.63;;;;;;;;;;5058225;28;20264;-73
2022/04/23 13:53:36;;;;;;;1.00;0.60;;;;;;;;;;5061998;28;20203;-74
2022/04/23 13:56:05;;;;;;;1.17;0.70;;;;;;;;;;5057349;28;20258;-74
2022/04/23 13:58:33;;;;;;;1.33;0.63;;;;;;;;;;5057891;28;20242;-74
2022/04/23 14:01:02;;;;;;;2.53;0.50;;;;;;;;;;5057075;28;20678;-74
2022/04/23 14:11:47;;;;;;;1.07;0.80;;;;;;;;;;5057133;28;20655;-74
2022/04/23 14:14:15;;;;;;;1.57;1.20;;;;;;;;;;5057504;28;20241;-73
2022/04/23 14:16:44;;;;;;;1.67;1.30;;;;;;;;;;5056654;28;20254;-74
2022/04/23 14:19:13;;;;;;;1.63;1.10;;;;;;;;;;5057131;28;20222;-74
2022/04/23 14:21:41;;;;;;;1.40;1.30;;;;;;;;;;5056939;28;20306;-74
2022/04/23 14:24:09;;;;;;;1.33;1.17;;;;;;;;;;5074083;28;20646;-74
2022/04/23 14:26:38;;;;;;;2.17;0.80;;;;;;;;;;5073442;28;20304;-74
2022/04/23 14:29:06;;;;;;;1.10;1.00;;;;;;;;;;5073346;28;20194;-73
2022/04/23 14:31:34;;;;;;;1.27;1.10;;;;;;;;;;5072758;28;20198;-76
2022/04/23 14:34:04;;;;;;;1.80;0.57;;;;;;;;;;5076689;28;20212;-76
2022/04/23 14:36:33;;;;;;;3.50;0.80;;;;;;;;;;5063350;28;20265;-73
2022/04/23 14:39:01;;;;;;;0.60;0.60;;;;;;;;;;5074836;28;20252;-75
2022/04/23 14:41:29;;;;;;;1.23;1.00;;;;;;;;;;5075857;28;20234;-75
2022/04/23 14:43:58;;;;;;;0.70;0.70;;;;;;;;;;5062116;28;20218;-75
2022/04/23 14:46:26;;;;;;;2.20;0.80;;;;;;;;;;5061499;28;20269;-73
2022/04/23 14:48:54;;;;;;;1.83;1.73;;;;;;;;;;5062030;28;20268;-79
2022/04/23 14:54:10;;;;;;;1.63;1.03;;;;;;;;;;5070160;28;20289;-75
2022/04/23 14:56:38;;;;;;;1.33;1.23;;;;;;;;;;5078734;28;20279;-76
2022/04/23 14:59:08;;;;;;;2.83;1.07;;;;;;;;;;5071680;28;20605;-78
2022/04/23 15:01:37;;;;;;;2.50;0.70;;;;;;;;;;5071176;28;20712;-79
2022/04/23 15:04:10;;;;;;;1.53;1.43;;;;;;;;;;5070720;28;20289;-79
2022/04/23 15:06:39;;;;;;;1.63;1.40;;;;;;;;;;5068361;28;20694;-79
2022/04/23 15:09:08;;;;;;;3.50;1.00;;;;;;;;;;5072336;28;20202;-79
2022/04/23 15:11:36;;;;;;;1.93;1.40;;;;;;;;;;5067186;28;20286;-78
2022/04/23 15:14:04;;;;;;;3.77;1.93;;;;;;;;;;5076033;28;20228;-79
2022/04/23 15:16:32;;;;;;;1.17;1.03;;;;;;;;;;5059590;28;20356;-80
2022/04/23 15:19:00;;;;;;;2.30;1.27;;;;;;;;;;5070644;28;20270;-80
2022/04/23 15:21:28;;;;;;;1.43;0.90;;;;;;;;;;5059855;28;20213;-80
2022/04/23 15:23:58;;;;;;;1.20;0.70;;;;;;;;;;5060040;28;20238;-80
2022/04/23 15:26:26;;;;;;;2.67;1.00;;;;;;;;;;5071714;28;20230;-81
2022/04/23 15:28:54;;;;;;;1.40;0.93;;;;;;;;;;5079638;28;20673;-81
2022/04/23 15:31:22;;;;;;;1.43;1.33;;;;;;;;;;5063531;28;20628;-81
2022/04/23 15:33:51;;;;;;;1.43;1.33;;;;;;;;;;5067257;28;20230;-81
2022/04/23 15:36:20;;;;;;;1.10;1.00;;;;;;;;;;5071956;28;20713;-80
2022/04/23 15:38:48;;;;;;;1.00;0.90;;;;;;;;;;5072402;28;20233;-81
2022/04/23 15:41:17;;;;;;;1.03;0.90;;;;;;;;;;5063400;28;20599;-82
2022/04/23 15:43:45;;;;;;;4.43;1.23;;;;;;;;;;5059918;28;20245;-80